createdAt,value
2023-04-29T00:00:19.332Z,10.66
2023-04-29T00:03:04.662Z,10.58
2023-04-29T00:05:49.947Z,10.49
2023-04-29T00:08:35.087Z,10.45
2023-04-29T00:11:20.462Z,10.48
2023-04-29T00:14:05.529Z,10.51
2023-04-29T00:16:50.628Z,10.41
2023-04-29T00:19:35.841Z,10.49
2023-04-29T00:22:22.655Z,10.49
2023-04-29T00:25:08.480Z,10.47
2023-04-29T00:27:53.467Z,10.46
2023-04-29T00:30:38.513Z,10.35
2023-04-29T00:33:23.868Z,10.38
2023-04-29T00:36:09.552Z,10.36
2023-04-29T00:38:54.320Z,10.21
2023-04-29T00:41:39.748Z,10.21
2023-04-29T00:44:24.911Z,10.22
2023-04-29T00:47:11.554Z,10.14
2023-04-29T00:49:56.602Z,9.99
2023-04-29T00:52:43.047Z,10.03
2023-04-29T00:55:28.864Z,10.02
2023-04-29T00:58:14.252Z,10.01
2023-04-29T01:01:00.886Z,9.95
2023-04-29T01:03:46.411Z,9.95
2023-04-29T01:07:13.327Z,9.91
2023-04-29T01:10:10.701Z,9.85
2023-04-29T01:13:08.138Z,9.80
2023-04-29T01:16:06.456Z,9.75
2023-04-29T01:18:59.220Z,9.65
2023-04-29T01:21:51.638Z,9.58
2023-04-29T01:24:36.847Z,9.52
2023-04-29T01:27:42.216Z,9.43
2023-04-29T01:30:38.255Z,9.40
2023-04-29T01:33:35.731Z,9.35
2023-04-29T01:36:36.243Z,9.29
2023-04-29T01:39:34.741Z,9.25
2023-04-29T01:42:31.041Z,9.19
2023-04-29T01:45:17.763Z,9.11
2023-04-29T01:48:04.761Z,8.99
2023-04-29T01:50:50.265Z,8.91
2023-04-29T01:53:35.354Z,8.89
2023-04-29T01:56:20.406Z,8.82
2023-04-29T01:59:05.343Z,8.72
2023-04-29T02:01:50.861Z,8.77
2023-04-29T02:04:36.398Z,8.67
2023-04-29T02:07:21.894Z,8.56
2023-04-29T02:10:07.579Z,8.52
2023-04-29T02:12:52.677Z,8.52
2023-04-29T02:15:37.859Z,8.57
2023-04-29T02:18:23.210Z,8.56
2023-04-29T02:21:08.904Z,8.50
2023-04-29T02:23:54.574Z,8.45
2023-04-29T02:26:39.370Z,8.39
2023-04-29T02:29:26.421Z,8.35
2023-04-29T02:32:11.702Z,8.21
2023-04-29T02:34:57.081Z,8.28
2023-04-29T02:37:42.436Z,8.18
2023-04-29T02:40:27.313Z,8.17
2023-04-29T02:43:12.560Z,8.07
2023-04-29T02:45:57.990Z,8.14
2023-04-29T02:48:43.094Z,8.22
2023-04-29T02:51:29.040Z,8.25
2023-04-29T02:54:14.346Z,8.21
2023-04-29T02:56:59.451Z,8.14
2023-04-29T02:59:44.489Z,8.01
2023-04-29T03:02:29.476Z,7.90
2023-04-29T03:05:15.478Z,7.94
2023-04-29T03:08:00.723Z,7.94
2023-04-29T03:10:46.662Z,7.91
2023-04-29T03:13:31.834Z,7.89
2023-04-29T03:16:17.161Z,7.75
2023-04-29T03:19:02.345Z,7.59
2023-04-29T03:21:47.726Z,7.76
2023-04-29T03:24:32.892Z,7.62
2023-04-29T03:27:17.759Z,7.73
2023-04-29T03:30:02.817Z,7.69
2023-04-29T03:32:47.718Z,7.56
2023-04-29T03:35:33.025Z,7.44
2023-04-29T03:38:18.128Z,7.55
2023-04-29T03:41:03.258Z,7.46
2023-04-29T03:43:48.494Z,7.43
2023-04-29T03:46:33.446Z,7.36
2023-04-29T03:49:18.410Z,7.34
2023-04-29T03:52:04.718Z,7.28
2023-04-29T03:54:50.061Z,7.28
2023-04-29T03:57:34.972Z,7.29
2023-04-29T04:00:20.030Z,7.20
2023-04-29T04:03:05.874Z,7.21
2023-04-29T04:05:51.079Z,7.24
2023-04-29T04:08:36.179Z,7.21
2023-04-29T04:11:21.028Z,7.16
2023-04-29T04:14:06.501Z,7.12
2023-04-29T04:16:51.600Z,7.14
2023-04-29T04:19:36.929Z,7.14
2023-04-29T04:22:21.988Z,7.12
2023-04-29T04:25:08.412Z,7.14
2023-04-29T04:27:54.390Z,7.11
2023-04-29T04:30:39.292Z,6.88
2023-04-29T04:33:25.972Z,7.00
2023-04-29T04:36:11.399Z,6.99
2023-04-29T04:38:56.659Z,6.98
2023-04-29T04:41:41.732Z,6.91
2023-04-29T04:44:26.861Z,6.89
2023-04-29T04:47:11.826Z,6.81
2023-04-29T04:49:56.923Z,6.72
2023-04-29T04:52:42.679Z,6.78
2023-04-29T04:55:27.735Z,6.82
2023-04-29T04:58:12.894Z,6.68
2023-04-29T05:00:58.299Z,6.74
2023-04-29T05:03:44.055Z,6.72
2023-04-29T05:06:29.138Z,6.71
2023-04-29T05:09:14.423Z,6.63
2023-04-29T05:11:59.474Z,6.48
2023-04-29T05:14:44.888Z,6.58
2023-04-29T05:17:30.452Z,6.66
2023-04-29T05:20:15.720Z,6.49
2023-04-29T05:23:00.780Z,6.62
2023-04-29T05:25:46.102Z,6.62
2023-04-29T05:28:31.097Z,6.64
2023-04-29T05:31:16.498Z,6.71
2023-04-29T05:34:01.582Z,6.71
2023-04-29T05:36:46.674Z,6.73
2023-04-29T05:39:32.040Z,6.75
2023-04-29T05:42:16.995Z,6.77
2023-04-29T05:45:02.209Z,6.82
2023-04-29T05:47:47.567Z,6.84
2023-04-29T05:50:32.345Z,6.82
2023-04-29T05:53:17.373Z,6.73
2023-04-29T05:56:06.525Z,6.85
2023-04-29T05:58:52.139Z,6.86
2023-04-29T06:01:37.167Z,6.90
2023-04-29T06:04:22.520Z,6.97
2023-04-29T06:07:09.182Z,7.07
2023-04-29T06:09:55.034Z,7.22
2023-04-29T06:12:40.296Z,7.32
2023-04-29T06:15:25.859Z,7.40
2023-04-29T06:18:11.027Z,7.47
2023-04-29T06:20:56.048Z,7.49
2023-04-29T06:23:41.268Z,7.56
2023-04-29T06:26:26.285Z,7.69
2023-04-29T06:29:11.495Z,7.81
2023-04-29T06:31:56.892Z,7.95
2023-04-29T06:34:42.235Z,8.00
2023-04-29T06:37:28.700Z,8.22
2023-04-29T06:40:13.980Z,8.32
2023-04-29T06:42:59.227Z,8.44
2023-04-29T06:45:46.914Z,8.57
2023-04-29T06:48:32.320Z,8.72
2023-04-29T06:51:18.034Z,8.75
2023-04-29T06:54:03.000Z,8.79
2023-04-29T06:56:48.448Z,8.80
2023-04-29T06:59:33.714Z,8.94
2023-04-29T07:02:18.697Z,9.07
2023-04-29T07:05:04.017Z,9.26
2023-04-29T07:07:49.330Z,9.28
2023-04-29T07:10:34.851Z,9.40
2023-04-29T07:13:20.029Z,9.43
2023-04-29T07:16:05.628Z,9.59
2023-04-29T07:18:51.018Z,9.67
2023-04-29T07:21:36.209Z,9.70
2023-04-29T07:24:23.048Z,9.80
2023-04-29T07:27:08.060Z,9.92
2023-04-29T07:29:53.159Z,10.05
2023-04-29T07:32:38.067Z,10.09
2023-04-29T07:35:23.170Z,10.21
2023-04-29T07:38:08.340Z,10.21
2023-04-29T07:40:53.680Z,10.21
2023-04-29T07:43:40.259Z,9.99
2023-04-29T07:46:26.574Z,10.00
2023-04-29T07:49:11.640Z,10.14
2023-04-29T07:51:56.951Z,10.31
2023-04-29T07:54:42.187Z,10.49
2023-04-29T07:57:27.139Z,10.54
2023-04-29T08:00:12.462Z,10.57
2023-04-29T08:02:57.946Z,10.72
2023-04-29T08:05:43.534Z,10.71
2023-04-29T08:08:30.321Z,10.78
2023-04-29T08:11:17.383Z,11.03
2023-04-29T08:14:02.465Z,11.13
2023-04-29T08:16:47.731Z,11.08
2023-04-29T08:19:33.003Z,11.20
2023-04-29T08:22:18.191Z,11.16
2023-04-29T08:25:07.063Z,11.15
2023-04-29T08:27:52.329Z,11.34
2023-04-29T08:30:41.576Z,11.58
2023-04-29T08:33:26.991Z,11.63
2023-04-29T08:36:12.250Z,11.75
2023-04-29T08:38:57.328Z,11.61
2023-04-29T08:41:45.473Z,11.68
2023-04-29T08:44:32.666Z,11.74
2023-04-29T08:47:17.903Z,11.90
2023-04-29T08:50:05.166Z,12.00
2023-04-29T08:52:51.870Z,12.13
2023-04-29T08:55:47.250Z,12.24
2023-04-29T08:58:34.543Z,12.32
2023-04-29T09:01:19.725Z,12.21
2023-04-29T09:04:20.095Z,12.27
2023-04-29T09:07:06.826Z,12.54
2023-04-29T09:09:53.096Z,12.65
2023-04-29T09:12:38.309Z,12.69
2023-04-29T09:15:23.657Z,12.74
2023-04-29T09:18:08.737Z,12.90
2023-04-29T09:20:54.263Z,13.12
2023-04-29T09:23:39.681Z,13.28
2023-04-29T09:26:25.896Z,13.43
2023-04-29T09:29:15.896Z,13.31
2023-04-29T09:32:01.083Z,13.36
2023-04-29T09:34:46.264Z,13.52
2023-04-29T09:37:31.498Z,13.53
2023-04-29T09:40:36.572Z,13.64
2023-04-29T09:43:29.094Z,13.76
2023-04-29T09:46:14.636Z,13.67
2023-04-29T09:49:01.098Z,13.74
2023-04-29T09:51:57.825Z,13.71
2023-04-29T09:54:44.409Z,13.54
2023-04-29T09:57:42.627Z,13.66
2023-04-29T10:00:31.565Z,13.93
2023-04-29T10:03:17.420Z,14.22
2023-04-29T10:06:07.421Z,14.45
2023-04-29T10:08:52.499Z,14.75
2023-04-29T10:11:38.046Z,14.97
2023-04-29T10:14:24.944Z,15.05
2023-04-29T10:17:21.893Z,15.11
2023-04-29T10:20:08.989Z,14.88
2023-04-29T10:22:56.576Z,15.13
2023-04-29T10:25:46.697Z,15.51
2023-04-29T10:28:32.806Z,15.66
2023-04-29T10:31:19.995Z,15.81
2023-04-29T10:34:04.872Z,15.81
2023-04-29T10:36:50.776Z,15.98
2023-04-29T10:39:44.071Z,15.82
2023-04-29T10:42:43.477Z,15.44
2023-04-29T10:45:31.774Z,15.47
2023-04-29T10:48:18.799Z,15.81
2023-04-29T10:51:04.134Z,16.07
2023-04-29T10:54:12.492Z,16.51
2023-04-29T10:56:57.857Z,16.72
2023-04-29T10:59:43.161Z,16.72
2023-04-29T11:02:28.207Z,16.62
2023-04-29T11:05:13.792Z,16.81
2023-04-29T11:08:23.468Z,16.98
2023-04-29T11:11:08.748Z,17.13
2023-04-29T11:13:53.828Z,17.25
2023-04-29T11:16:47.570Z,17.30
2023-04-29T11:19:36.701Z,17.37
2023-04-29T11:22:27.402Z,17.49
2023-04-29T11:25:12.355Z,17.47
2023-04-29T11:27:59.265Z,17.64
2023-04-29T11:30:46.493Z,17.83
2023-04-29T11:33:33.051Z,18.10
2023-04-29T11:36:18.379Z,18.06
2023-04-29T11:39:04.739Z,18.21
2023-04-29T11:41:52.514Z,18.38
2023-04-29T11:44:38.006Z,18.43
2023-04-29T11:47:31.474Z,18.52
2023-04-29T11:50:19.522Z,18.66
2023-04-29T11:53:04.861Z,18.69
2023-04-29T11:55:50.095Z,18.92
2023-04-29T11:58:35.148Z,19.09
2023-04-29T12:01:21.398Z,18.97
2023-04-29T12:04:07.377Z,19.06
2023-04-29T12:06:53.184Z,19.20
2023-04-29T12:09:45.205Z,19.17
2023-04-29T12:12:34.853Z,19.23
2023-04-29T12:15:20.084Z,19.45
2023-04-29T12:18:05.569Z,19.46
2023-04-29T12:20:57.321Z,19.46
2023-04-29T12:23:42.949Z,19.53
2023-04-29T12:26:30.597Z,19.63
2023-04-29T12:29:15.939Z,19.91
2023-04-29T12:32:01.327Z,20.28
2023-04-29T12:34:47.492Z,20.31
2023-04-29T12:37:33.354Z,20.21
2023-04-29T12:40:20.264Z,20.35
2023-04-29T12:43:10.933Z,20.40
2023-04-29T12:46:23.307Z,20.62
2023-04-29T12:49:08.952Z,20.90
2023-04-29T12:51:54.147Z,21.08
2023-04-29T12:54:43.653Z,20.83
2023-04-29T12:57:29.028Z,20.70
2023-04-29T13:00:15.096Z,20.64
2023-04-29T13:03:00.022Z,20.83
2023-04-29T13:05:46.078Z,21.26
2023-04-29T13:08:31.347Z,20.45
2023-04-29T13:11:16.397Z,19.70
2023-04-29T13:14:01.648Z,20.18
2023-04-29T13:16:46.681Z,20.95
2023-04-29T13:19:49.611Z,21.23
2023-04-29T13:22:37.402Z,21.55
2023-04-29T13:25:22.755Z,21.86
2023-04-29T13:28:07.610Z,20.98
2023-04-29T13:30:53.113Z,20.58
2023-04-29T13:33:40.176Z,21.29
2023-04-29T13:36:28.095Z,21.69
2023-04-29T13:39:14.452Z,22.03
2023-04-29T13:41:59.995Z,22.10
2023-04-29T13:44:52.422Z,22.19
2023-04-29T13:47:57.483Z,22.44
2023-04-29T13:51:04.964Z,22.29
2023-04-29T13:54:29.320Z,21.57
2023-04-29T13:57:47.232Z,21.29
2023-04-29T14:00:00.772Z,20.72
2023-04-29T14:05:43.838Z,21.47
2023-04-29T14:08:29.129Z,20.82
2023-04-29T14:11:14.470Z,21.57
2023-04-29T14:13:59.840Z,22.18
2023-04-29T14:16:45.048Z,22.55
2023-04-29T14:19:30.361Z,22.83
2023-04-29T14:22:15.480Z,22.55
2023-04-29T14:25:00.563Z,21.88
2023-04-29T14:27:45.696Z,21.62
2023-04-29T14:30:30.997Z,22.00
2023-04-29T14:33:16.111Z,22.38
2023-04-29T14:36:01.066Z,22.69
2023-04-29T14:38:46.444Z,22.57
2023-04-29T14:41:31.682Z,22.46
2023-04-29T14:44:17.074Z,22.71
2023-04-29T14:47:02.242Z,22.91
2023-04-29T14:49:47.300Z,22.88
2023-04-29T14:52:32.236Z,23.12
2023-04-29T14:55:17.233Z,22.91
2023-04-29T14:58:04.886Z,22.88
2023-04-29T15:00:51.033Z,22.87
2023-04-29T15:03:43.531Z,22.76
2023-04-29T15:06:29.821Z,21.98
2023-04-29T15:09:15.070Z,21.65
2023-04-29T15:11:59.977Z,21.92
2023-04-29T15:14:45.326Z,22.46
2023-04-29T15:17:30.691Z,22.61
2023-04-29T15:20:16.333Z,22.52
2023-04-29T15:23:01.485Z,22.78
2023-04-29T15:25:46.769Z,22.74
2023-04-29T15:28:31.997Z,22.99
2023-04-29T15:31:17.055Z,22.94
2023-04-29T15:34:02.369Z,23.18
2023-04-29T15:36:47.415Z,23.21
2023-04-29T15:39:32.770Z,23.26
2023-04-29T15:42:18.181Z,22.83
2023-04-29T15:45:03.094Z,22.63
2023-04-29T15:47:48.557Z,22.67
2023-04-29T15:50:33.706Z,22.50
2023-04-29T15:53:19.072Z,22.03
2023-04-29T15:56:04.675Z,21.71
2023-04-29T15:58:49.710Z,21.79
2023-04-29T16:01:36.455Z,21.55
2023-04-29T16:04:21.709Z,21.07
2023-04-29T16:07:07.146Z,21.17
2023-04-29T16:09:52.630Z,21.09
2023-04-29T16:12:37.925Z,21.02
2023-04-29T16:15:23.226Z,20.88
2023-04-29T16:18:08.178Z,20.68
2023-04-29T16:20:53.318Z,20.60
2023-04-29T16:23:38.404Z,20.26
2023-04-29T16:26:23.710Z,20.13
2023-04-29T16:29:10.127Z,19.87
2023-04-29T16:31:55.754Z,19.57
2023-04-29T16:34:41.777Z,19.35
2023-04-29T16:37:27.109Z,19.22
2023-04-29T16:40:12.789Z,19.18
2023-04-29T16:42:57.868Z,19.10
2023-04-29T16:45:43.278Z,19.01
2023-04-29T16:48:29.586Z,18.87
2023-04-29T16:51:14.571Z,18.71
2023-04-29T16:53:59.647Z,18.66
2023-04-29T16:56:44.942Z,18.67
2023-04-29T16:59:30.310Z,18.45
2023-04-29T17:02:15.606Z,18.25
2023-04-29T17:05:01.065Z,18.16
2023-04-29T17:07:46.082Z,18.16
2023-04-29T17:10:31.259Z,17.93
2023-04-29T17:13:16.665Z,17.75
2023-04-29T17:16:02.171Z,17.66
2023-04-29T17:18:47.320Z,17.62
2023-04-29T17:21:32.405Z,17.54
2023-04-29T17:24:18.166Z,17.52
2023-04-29T17:27:03.441Z,17.46
2023-04-29T17:29:48.717Z,17.42
2023-04-29T17:32:38.974Z,17.29
2023-04-29T17:35:24.170Z,17.29
2023-04-29T17:38:09.370Z,17.13
2023-04-29T17:40:54.914Z,17.18
2023-04-29T17:43:40.924Z,17.13
2023-04-29T17:46:25.880Z,16.94
2023-04-29T17:49:11.389Z,16.90
2023-04-29T17:51:57.040Z,16.91
2023-04-29T17:54:42.341Z,16.81
2023-04-29T17:57:31.098Z,16.70
2023-04-29T18:00:16.744Z,16.75
2023-04-29T18:03:02.960Z,16.65
2023-04-29T18:05:48.527Z,16.43
2023-04-29T18:08:33.795Z,16.29
2023-04-29T18:11:18.690Z,16.44
2023-04-29T18:14:04.724Z,16.26
2023-04-29T18:16:49.701Z,16.25
2023-04-29T18:19:34.814Z,16.25
2023-04-29T18:22:19.766Z,16.19
2023-04-29T18:25:05.036Z,16.04
2023-04-29T18:27:49.996Z,16.04
2023-04-29T18:30:35.837Z,16.03
2023-04-29T18:33:21.388Z,16.01
2023-04-29T18:36:06.744Z,15.95
2023-04-29T18:38:51.807Z,15.84
2023-04-29T18:41:37.235Z,15.64
2023-04-29T18:44:22.705Z,15.64
2023-04-29T18:47:07.935Z,15.56
2023-04-29T18:49:53.250Z,15.45
2023-04-29T18:52:38.725Z,15.38
2023-04-29T18:55:24.690Z,15.25
2023-04-29T18:58:10.382Z,15.26
2023-04-29T19:00:57.663Z,15.20
2023-04-29T19:03:42.829Z,15.11
2023-04-29T19:06:28.634Z,15.02
2023-04-29T19:09:13.736Z,14.95
2023-04-29T19:12:09.622Z,14.90
2023-04-29T19:14:54.887Z,14.80
2023-04-29T19:17:39.895Z,14.78
2023-04-29T19:20:25.768Z,14.75
2023-04-29T19:23:10.785Z,14.68
2023-04-29T19:25:55.743Z,14.58
2023-04-29T19:28:40.876Z,14.54
2023-04-29T19:31:26.724Z,14.40
2023-04-29T19:34:11.664Z,14.32
2023-04-29T19:36:56.868Z,14.26
2023-04-29T19:39:41.892Z,14.16
2023-04-29T19:42:27.258Z,14.13
2023-04-29T19:45:12.680Z,14.07
2023-04-29T19:48:01.853Z,14.04
2023-04-29T19:50:46.880Z,13.99
2023-04-29T19:53:32.012Z,13.83
2023-04-29T19:56:19.275Z,13.83
2023-04-29T19:59:04.661Z,13.65
2023-04-29T20:01:51.407Z,13.66
2023-04-29T20:04:36.962Z,13.57
2023-04-29T20:07:22.199Z,13.50
2023-04-29T20:10:07.759Z,13.51
2023-04-29T20:12:53.066Z,13.49
2023-04-29T20:15:37.897Z,13.44
2023-04-29T20:18:22.835Z,13.34
2023-04-29T20:21:07.924Z,13.31
2023-04-29T20:23:53.365Z,13.25
2023-04-29T20:26:38.406Z,13.20
2023-04-29T20:29:23.495Z,13.17
2023-04-29T20:32:08.885Z,13.12
2023-04-29T20:34:54.461Z,13.06
2023-04-29T20:37:39.727Z,12.98
2023-04-29T20:40:24.650Z,12.93
2023-04-29T20:43:09.874Z,12.90
2023-04-29T20:45:55.409Z,12.87
2023-04-29T20:48:40.636Z,12.79
2023-04-29T20:51:26.758Z,12.80
2023-04-29T20:54:12.282Z,12.69
2023-04-29T20:56:57.423Z,12.68
2023-04-29T20:59:42.765Z,12.56
2023-04-29T21:02:27.958Z,12.51
2023-04-29T21:05:13.421Z,12.41
2023-04-29T21:07:58.703Z,12.27
2023-04-29T21:10:43.962Z,12.24
2023-04-29T21:13:29.294Z,12.16
2023-04-29T21:16:14.402Z,12.08
2023-04-29T21:18:59.446Z,12.03
2023-04-29T21:21:44.535Z,11.87
2023-04-29T21:24:31.507Z,11.95
2023-04-29T21:27:17.162Z,11.87
2023-04-29T21:30:04.798Z,11.80
2023-04-29T21:32:50.008Z,11.78
2023-04-29T21:35:34.923Z,11.72
2023-04-29T21:38:20.382Z,11.50
2023-04-29T21:41:06.200Z,11.65
2023-04-29T21:43:51.622Z,11.56
2023-04-29T21:46:37.336Z,11.52
2023-04-29T21:49:22.477Z,11.39
2023-04-29T21:52:08.004Z,11.36
2023-04-29T21:54:53.194Z,11.28
2023-04-29T21:57:44.062Z,11.17
2023-04-29T22:00:33.402Z,11.10
2023-04-29T22:03:18.680Z,11.11
2023-04-29T22:06:03.880Z,10.98
2023-04-29T22:08:49.507Z,11.01
2023-04-29T22:11:34.674Z,10.97
2023-04-29T22:14:19.897Z,10.93
2023-04-29T22:17:04.901Z,10.79
2023-04-29T22:19:49.854Z,10.86
2023-04-29T22:22:34.929Z,10.84
2023-04-29T22:25:21.565Z,10.74
2023-04-29T22:28:06.788Z,10.74
2023-04-29T22:30:52.159Z,10.72
2023-04-29T22:33:37.329Z,10.64
2023-04-29T22:36:22.502Z,10.62
2023-04-29T22:39:07.338Z,10.61
2023-04-29T22:41:52.362Z,10.47
2023-04-29T22:44:37.492Z,10.40
2023-04-29T22:47:22.618Z,10.42
2023-04-29T22:50:07.857Z,10.39
2023-04-29T22:52:52.925Z,10.37
2023-04-29T22:55:38.048Z,10.30
2023-04-29T22:58:27.047Z,10.28
2023-04-29T23:01:12.315Z,10.28
2023-04-29T23:03:57.870Z,10.25
2023-04-29T23:06:43.137Z,10.16
2023-04-29T23:09:29.049Z,10.13
2023-04-29T23:12:14.068Z,10.16
2023-04-29T23:14:59.281Z,10.08
2023-04-29T23:17:44.364Z,10.09
2023-04-29T23:20:29.401Z,10.05
2023-04-29T23:23:14.647Z,10.06
2023-04-29T23:25:59.902Z,9.99
2023-04-29T23:28:45.770Z,9.96
2023-04-29T23:31:30.990Z,9.89
2023-04-29T23:34:17.876Z,9.89
2023-04-29T23:37:03.267Z,9.89
2023-04-29T23:39:48.324Z,9.88
2023-04-29T23:42:33.878Z,9.81
2023-04-29T23:45:18.878Z,9.79
2023-04-29T23:48:04.297Z,9.76
2023-04-29T23:50:49.135Z,9.70
2023-04-29T23:53:34.066Z,9.66
2023-04-29T23:56:19.251Z,9.59
2023-04-29T23:59:04.417Z,9.59
